Time;durP1;ratioP1;P1;durP2;ratioP2;P2;SDS_P1;SDS_P2;PMS_P1;PMS_P2;Temp;Humidity;BMP_temperature;BMP_pressure;BME280_temperature;BME280_humidity;BME280_pressure;Samples;Min_cycle;Max_cycle;Signal;HPM_P1;HPM_P2
2024/01/11 00:04:05;;;;;;;0.30;0.30;;;;;;;-0.35;100.00;99346.72;10523668;28;20036;-68
2024/01/11 00:09:07;;;;;;;0.35;0.35;;;;;;;-0.35;100.00;99354.81;10530306;28;20385;-68
2024/01/11 00:14:10;;;;;;;0.52;0.30;;;;;;;-0.36;100.00;99364.75;10527160;28;20422;-68
2024/01/11 00:19:15;;;;;;;2.22;0.40;;;;;;;-0.37;100.00;99356.94;10556295;28;20036;-68
2024/01/11 00:24:18;;;;;;;0.32;0.30;;;;;;;-0.37;100.00;99363.13;10476376;28;20047;-66
2024/01/11 00:29:20;;;;;;;0.20;0.20;;;;;;;-0.42;100.00;99356.84;10529367;28;20073;-67
2024/01/11 00:34:22;;;;;;;0.47;0.40;;;;;;;-0.40;100.00;99355.53;10549522;28;20094;-66
2024/01/11 00:39:25;;;;;;;0.43;0.43;;;;;;;-0.42;100.00;99360.34;10534771;28;20036;-66
2024/01/11 00:44:27;;;;;;;0.52;0.40;;;;;;;-0.40;100.00;99363.63;10557124;28;20063;-66
2024/01/11 00:49:29;;;;;;;0.35;0.35;;;;;;;-0.43;100.00;99368.69;10528724;28;20792;-67
2024/01/11 00:54:31;;;;;;;0.47;0.47;;;;;;;-0.43;100.00;99368.69;10525408;28;20083;-67
2024/01/11 00:59:35;;;;;;;2.20;0.57;;;;;;;-0.44;100.00;99369.75;10529668;28;20059;-66
2024/01/11 01:04:38;;;;;;;0.20;0.20;;;;;;;-0.46;100.00;99372.69;10530597;28;20216;-68
2024/01/11 01:09:41;;;;;;;0.40;0.30;;;;;;;-0.41;100.00;99380.84;10559407;28;20040;-66
2024/01/11 01:14:43;;;;;;;2.47;0.63;;;;;;;-0.35;100.00;99395.22;10530129;28;20048;-66
2024/01/11 01:19:46;;;;;;;0.20;0.20;;;;;;;-0.32;100.00;99400.16;10516237;28;20500;-66
2024/01/11 01:24:48;;;;;;;0.35;0.35;;;;;;;-0.33;100.00;99393.97;10520672;28;20043;-67
2024/01/11 01:29:50;;;;;;;0.30;0.30;;;;;;;-0.34;100.00;99405.81;10523275;28;20036;-66
2024/01/11 01:34:52;;;;;;;0.20;0.20;;;;;;;-0.32;100.00;99409.06;10520733;28;20037;-67
2024/01/11 01:39:55;;;;;;;0.43;0.30;;;;;;;-0.35;100.00;99420.34;10534854;28;20032;-67
2024/01/11 01:44:58;;;;;;;1.08;0.70;;;;;;;-0.39;100.00;99416.47;10536312;28;20039;-67
2024/01/11 01:50:00;;;;;;;0.77;0.40;;;;;;;-0.43;100.00;99460.31;10541371;28;20435;-67
2024/01/11 01:55:04;;;;;;;0.25;0.25;;;;;;;-1.18;100.00;99479.13;10557577;28;20051;-66
2024/01/11 02:00:09;;;;;;;0.20;0.20;;;;;;;-1.51;100.00;99477.78;10535347;28;20062;-67
2024/01/11 02:05:16;;;;;;;0.10;0.10;;;;;;;-1.45;100.00;99500.25;10550256;28;20055;-66
2024/01/11 02:10:19;;;;;;;0.10;0.10;;;;;;;-1.36;100.00;99501.56;10514148;28;20474;-68
2024/01/11 02:15:21;;;;;;;0.43;0.40;;;;;;;-1.25;97.58;99514.19;10523843;28;20040;-67
2024/01/11 02:20:23;;;;;;;0.20;0.20;;;;;;;-1.18;95.88;99549.91;10531146;28;20040;-67
2024/01/11 02:25:26;;;;;;;0.20;0.20;;;;;;;-1.26;91.44;99563.69;10527459;28;20044;-67
2024/01/11 02:30:29;;;;;;;0.17;0.17;;;;;;;-1.30;89.47;99570.59;10534864;28;20043;-67
2024/01/11 02:35:33;;;;;;;0.03;0.03;;;;;;;-1.39;89.06;99577.34;10561347;28;20063;-67
2024/01/11 02:40:37;;;;;;;0.10;0.10;;;;;;;-1.44;89.03;99598.72;10527885;28;20039;-67
2024/01/11 02:45:39;;;;;;;0.10;0.10;;;;;;;-1.49;88.96;99590.53;10526656;28;20049;-67
2024/01/11 02:50:42;;;;;;;0.15;0.15;;;;;;;-1.59;85.31;99617.97;10519954;28;20056;-68
2024/01/11 02:55:48;;;;;;;0.15;0.15;;;;;;;-1.84;80.75;99656.56;10550568;28;20036;-67
2024/01/11 03:00:51;;;;;;;0.20;0.20;;;;;;;-2.13;80.53;99650.03;10532892;28;20053;-67
2024/01/11 03:05:54;;;;;;;0.30;0.30;;;;;;;-2.32;77.36;99661.81;10524013;28;20037;-68
2024/01/11 03:10:56;;;;;;;0.20;0.20;;;;;;;-2.45;77.21;99680.72;10535303;28;20036;-68
2024/01/11 03:15:58;;;;;;;0.63;0.32;;;;;;;-2.52;77.56;99677.28;10545646;28;20048;-67
2024/01/11 03:21:01;;;;;;;0.47;0.40;;;;;;;-2.64;77.27;99684.41;10540821;28;20039;-68
2024/01/11 03:26:03;;;;;;;1.55;0.35;;;;;;;-2.74;77.76;99701.00;10548101;28;20518;-68
2024/01/11 03:31:06;;;;;;;0.22;0.17;;;;;;;-2.86;77.06;99718.84;10555202;28;20058;-67
2024/01/11 03:36:10;;;;;;;0.17;0.17;;;;;;;-2.96;77.65;99724.66;10513763;28;20039;-67
2024/01/11 03:41:13;;;;;;;0.15;0.15;;;;;;;-3.08;75.86;99746.03;10532261;28;20039;-67
2024/01/11 03:46:16;;;;;;;0.75;0.30;;;;;;;-3.21;76.33;99742.56;10536151;28;20048;-67
2024/01/11 03:51:19;;;;;;;0.47;0.30;;;;;;;-3.37;74.58;99766.16;10540220;28;20051;-66
2024/01/11 03:56:23;;;;;;;0.30;0.30;;;;;;;-3.58;74.65;99781.69;10560637;28;20049;-67
2024/01/11 04:01:26;;;;;;;0.55;0.50;;;;;;;-3.76;74.85;99774.31;10534765;28;20035;-67
2024/01/11 04:06:28;;;;;;;0.95;0.63;;;;;;;-3.85;75.67;99794.31;10504962;28;20040;-67
2024/01/11 04:11:30;;;;;;;0.30;0.30;;;;;;;-4.02;74.41;99808.16;10528517;28;20048;-66
2024/01/11 04:16:33;;;;;;;0.77;0.30;;;;;;;-4.10;75.19;99813.72;10527790;28;20044;-66
2024/01/11 04:21:38;;;;;;;0.30;0.30;;;;;;;-4.18;73.92;99854.09;10529944;28;20047;-66
2024/01/11 04:26:40;;;;;;;0.20;0.20;;;;;;;-4.26;73.86;99867.69;10514564;28;20125;-66
2024/01/11 04:31:43;;;;;;;0.95;0.80;;;;;;;-4.34;74.09;99863.38;10500087;28;20068;-66
2024/01/11 04:36:45;;;;;;;0.17;0.17;;;;;;;-4.36;73.98;99873.44;10493829;28;20044;-66
2024/01/11 04:41:47;;;;;;;0.25;0.20;;;;;;;-4.38;73.78;99883.53;10526081;28;20048;-66
2024/01/11 04:46:57;;;;;;;0.30;0.30;;;;;;;-4.55;74.82;99891.09;10518025;28;20054;-67
2024/01/11 04:52:02;;;;;;;0.20;0.20;;;;;;;-4.74;77.02;99913.28;10554682;28;20032;-67
2024/01/11 04:57:05;;;;;;;0.20;0.20;;;;;;;-4.87;74.42;99937.28;10527065;28;20033;-67
2024/01/11 05:02:08;;;;;;;0.20;0.20;;;;;;;-4.84;74.33;99952.97;10527556;28;20082;-65
2024/01/11 05:07:11;;;;;;;0.30;0.30;;;;;;;-5.25;80.10;99975.13;10527031;28;20041;-67
2024/01/11 05:12:13;;;;;;;0.35;0.35;;;;;;;-5.59;85.62;99970.56;10524199;28;20040;-67
2024/01/11 05:17:16;;;;;;;0.55;0.25;;;;;;;-5.57;86.51;99983.72;10526245;28;20036;-66
2024/01/11 05:22:18;;;;;;;0.22;0.22;;;;;;;-5.51;86.63;99977.63;10525524;28;20041;-66
2024/01/11 05:27:20;;;;;;;0.30;0.30;;;;;;;-4.84;86.96;99985.09;10525457;28;20051;-67
2024/01/11 05:32:24;;;;;;;0.28;0.13;;;;;;;-5.57;93.77;100013.13;10525424;28;20051;-66
2024/01/11 05:37:26;;;;;;;0.17;0.17;;;;;;;-5.73;96.36;100024.88;10524771;28;20135;-66
2024/01/11 05:42:28;;;;;;;0.52;0.40;;;;;;;-5.93;89.58;100019.38;10524324;28;20520;-66
2024/01/11 05:47:30;;;;;;;0.30;0.30;;;;;;;-5.70;85.61;100021.88;10524341;28;20040;-65
2024/01/11 05:52:33;;;;;;;0.40;0.40;;;;;;;-5.61;82.60;100047.44;10504752;28;20032;-66
2024/01/11 05:57:36;;;;;;;2.75;1.08;;;;;;;-5.63;81.18;100057.47;10506542;28;20048;-66
2024/01/11 06:02:38;;;;;;;0.43;0.40;;;;;;;-5.59;78.44;100081.97;10524043;28;20036;-67
2024/01/11 06:07:40;;;;;;;0.43;0.43;;;;;;;-5.94;77.60;100091.69;10524572;28;20045;-66
2024/01/11 06:12:43;;;;;;;1.05;0.63;;;;;;;-6.02;76.53;100100.66;10524604;28;20040;-65
2024/01/11 06:17:45;;;;;;;0.57;0.32;;;;;;;-6.12;71.76;100100.94;10511140;28;20040;-66
2024/01/11 06:22:47;;;;;;;0.55;0.50;;;;;;;-6.22;70.08;100115.59;10524290;28;20036;-66
2024/01/11 06:27:50;;;;;;;1.75;0.68;;;;;;;-6.72;77.11;100178.50;10520042;28;20032;-66
2024/01/11 06:32:53;;;;;;;0.50;0.50;;;;;;;-6.77;78.98;100165.72;10522958;28;20389;-66
2024/01/11 06:37:55;;;;;;;0.82;0.45;;;;;;;-6.64;75.86;100159.75;10522489;28;20055;-66
2024/01/11 06:42:57;;;;;;;0.95;0.60;;;;;;;-6.68;76.05;100198.47;10523205;28;20598;-66
2024/01/11 06:48:00;;;;;;;0.30;0.30;;;;;;;-6.77;75.95;100207.53;10522404;28;20041;-66
2024/01/11 06:53:02;;;;;;;1.15;0.55;;;;;;;-6.76;75.46;100199.41;10522779;28;20055;-66
2024/01/11 06:58:05;;;;;;;0.40;0.40;;;;;;;-6.65;78.21;100221.31;10522987;28;20059;-66
2024/01/11 07:03:07;;;;;;;1.73;0.43;;;;;;;-6.75;81.83;100222.38;10528878;28;20036;-66
2024/01/11 07:08:09;;;;;;;0.20;0.20;;;;;;;-6.87;84.00;100236.31;10530614;28;20043;-66
2024/01/11 07:13:14;;;;;;;0.30;0.30;;;;;;;-6.91;84.18;100229.69;10531892;28;20044;-65
2024/01/11 07:18:17;;;;;;;0.35;0.35;;;;;;;-6.83;84.74;100242.94;10530758;28;20028;-66
2024/01/11 07:23:20;;;;;;;0.43;0.43;;;;;;;-7.04;83.98;100244.44;10513737;28;20052;-66
2024/01/11 07:28:25;;;;;;;1.08;0.65;;;;;;;-6.94;83.64;100248.69;10529792;28;20040;-66
2024/01/11 07:33:27;;;;;;;0.65;0.65;;;;;;;-6.97;83.66;100260.53;10531573;28;20048;-66
2024/01/11 07:38:29;;;;;;;0.77;0.40;;;;;;;-7.06;83.27;100270.44;10529763;28;20032;-66
2024/01/11 07:43:35;;;;;;;1.52;0.95;;;;;;;-7.08;84.35;100280.47;10533458;28;20040;-66
2024/01/11 07:48:37;;;;;;;2.10;0.63;;;;;;;-7.15;82.95;100284.00;10531761;28;20423;-66
2024/01/11 07:53:40;;;;;;;1.10;0.77;;;;;;;-7.04;83.36;100303.09;10530132;28;20040;-66
2024/01/11 07:58:43;;;;;;;0.40;0.40;;;;;;;-7.23;82.86;100302.72;10530094;28;20044;-66
2024/01/11 08:03:45;;;;;;;0.73;0.70;;;;;;;-7.38;81.39;100316.75;10528017;28;20052;-65
2024/01/11 08:08:51;;;;;;;0.50;0.50;;;;;;;-7.42;79.71;100319.97;10529850;28;20036;-67
2024/01/11 08:13:54;;;;;;;0.85;0.85;;;;;;;-7.40;80.04;100333.94;10527619;28;20048;-66
2024/01/11 08:18:57;;;;;;;0.50;0.50;;;;;;;-7.38;79.76;100334.59;10527432;28;20028;-66
2024/01/11 08:23:59;;;;;;;1.10;0.70;;;;;;;-7.28;78.55;100329.91;10526269;28;20090;-66
2024/01/11 08:29:02;;;;;;;1.63;0.80;;;;;;;-7.30;78.57;100343.38;10527684;28;20257;-66
2024/01/11 08:34:04;;;;;;;0.82;0.82;;;;;;;-7.27;78.35;100339.56;10529011;28;20044;-66
2024/01/11 08:39:08;;;;;;;1.15;0.80;;;;;;;-7.44;77.68;100348.63;10512609;28;20036;-66
2024/01/11 08:44:10;;;;;;;0.82;0.68;;;;;;;-7.41;77.68;100359.75;10516451;28;20431;-66
2024/01/11 08:49:12;;;;;;;0.60;0.60;;;;;;;-7.55;78.35;100355.13;10479869;28;20543;-66
2024/01/11 08:54:16;;;;;;;3.35;0.75;;;;;;;-7.61;78.10;100367.31;10466992;28;20033;-66
2024/01/11 08:59:18;;;;;;;1.15;1.05;;;;;;;-7.56;78.30;100379.28;10484818;28;20033;-66
2024/01/11 09:04:25;;;;;;;0.47;0.47;;;;;;;-7.62;77.98;100370.97;10468510;28;20044;-66
2024/01/11 09:09:28;;;;;;;1.17;0.85;;;;;;;-7.68;77.96;100395.59;10484183;28;20037;-66
2024/01/11 09:14:30;;;;;;;1.75;0.70;;;;;;;-7.64;77.25;100388.94;10458535;28;20043;-66
2024/01/11 09:19:37;;;;;;;1.25;0.98;;;;;;;-7.73;76.83;100413.13;10484081;28;20045;-66
2024/01/11 09:24:39;;;;;;;0.73;0.60;;;;;;;-7.76;77.71;100408.13;10483199;28;20092;-66
2024/01/11 09:29:44;;;;;;;0.40;0.40;;;;;;;-7.70;77.52;100429.59;10483679;28;20047;-66
2024/01/11 09:34:47;;;;;;;1.77;0.60;;;;;;;-7.77;77.51;100449.91;10468030;28;20048;-66
2024/01/11 09:39:49;;;;;;;1.38;0.82;;;;;;;-7.75;77.37;100450.56;10482842;28;20030;-66
2024/01/11 09:44:54;;;;;;;1.10;0.60;;;;;;;-7.69;76.80;100449.88;10457776;28;20044;-65
2024/01/11 09:49:57;;;;;;;1.38;1.00;;;;;;;-7.69;76.40;100465.88;10473804;28;20060;-65
2024/01/11 09:55:01;;;;;;;0.40;0.40;;;;;;;-7.68;76.71;100474.69;10478981;28;20052;-63
2024/01/11 10:00:07;;;;;;;0.68;0.50;;;;;;;-7.68;76.97;100470.19;10475692;28;20440;-63
2024/01/11 10:05:16;;;;;;;0.20;0.20;;;;;;;-7.64;77.09;100479.50;10469672;28;20040;-64
2024/01/11 10:10:20;;;;;;;0.32;0.32;;;;;;;-7.70;77.17;100495.34;10476745;28;20037;-64
2024/01/11 10:15:24;;;;;;;0.90;0.60;;;;;;;-7.71;77.92;100491.84;10481306;28;20064;-65
2024/01/11 10:20:29;;;;;;;0.43;0.43;;;;;;;-7.83;79.73;100514.47;10481488;28;20041;-65
2024/01/11 10:25:32;;;;;;;0.40;0.40;;;;;;;-7.97;80.17;100525.81;10480211;28;20045;-65
2024/01/11 10:30:35;;;;;;;0.57;0.57;;;;;;;-8.02;81.92;100534.25;10470556;28;20033;-66
2024/01/11 10:35:38;;;;;;;0.40;0.40;;;;;;;-8.07;83.88;100546.41;10469240;28;20037;-65
2024/01/11 10:40:41;;;;;;;0.30;0.30;;;;;;;-8.09;86.60;100545.75;10469963;28;20037;-65
2024/01/11 10:45:44;;;;;;;1.88;0.80;;;;;;;-8.21;88.48;100563.84;10473647;28;20040;-63
2024/01/11 10:50:55;;;;;;;0.85;0.85;;;;;;;-8.22;89.75;100563.00;10511874;28;20049;-64
2024/01/11 10:55:58;;;;;;;1.00;0.70;;;;;;;-8.27;91.09;100567.97;10501461;28;20036;-64
2024/01/11 11:01:02;;;;;;;1.25;0.90;;;;;;;-8.29;93.17;100580.63;10498903;28;20041;-64
2024/01/11 11:06:06;;;;;;;0.77;0.77;;;;;;;-8.20;93.15;100584.97;10497281;28;20401;-67
2024/01/11 11:11:09;;;;;;;1.38;1.02;;;;;;;-8.16;94.06;100600.59;10488588;28;20044;-68
2024/01/11 11:16:11;;;;;;;3.65;1.30;;;;;;;-8.24;94.43;100612.91;10502769;28;20036;-67
2024/01/11 11:21:15;;;;;;;1.98;0.82;;;;;;;-8.08;94.35;100621.94;10489521;28;20060;-67
2024/01/11 11:26:17;;;;;;;2.13;1.08;;;;;;;-8.17;92.89;100630.88;10472377;28;20393;-67
2024/01/11 11:31:41;;;;;;;1.20;0.63;;;;;;;-8.18;92.13;100648.69;10522960;28;20037;-67
2024/01/11 11:36:46;;;;;;;1.38;1.10;;;;;;;-8.12;93.64;100647.22;10516118;28;20045;-68
2024/01/11 11:41:49;;;;;;;4.82;0.90;;;;;;;-8.06;93.50;100658.06;10506493;28;20036;-66
2024/01/11 11:46:52;;;;;;;1.85;1.05;;;;;;;-8.03;92.79;100667.53;10515809;28;20056;-67
2024/01/11 11:51:55;;;;;;;1.42;0.98;;;;;;;-7.87;92.20;100672.94;10519479;28;20045;-67
2024/01/11 11:56:59;;;;;;;1.13;0.60;;;;;;;-7.98;90.95;100684.72;10510176;28;20385;-69
2024/01/11 12:02:01;;;;;;;1.15;0.65;;;;;;;-8.02;91.41;100693.19;10511521;28;20040;-68
2024/01/11 12:07:04;;;;;;;1.48;1.00;;;;;;;-7.85;91.80;100712.72;10498240;28;20055;-67
2024/01/11 12:12:07;;;;;;;2.15;1.05;;;;;;;-7.92;92.04;100723.19;10521755;28;20043;-68
2024/01/11 12:17:10;;;;;;;2.00;0.65;;;;;;;-7.75;92.15;100732.91;10508741;28;20037;-67
2024/01/11 12:22:12;;;;;;;3.00;0.60;;;;;;;-7.72;91.81;100734.44;10515925;28;20621;-68
2024/01/11 12:27:15;;;;;;;0.90;0.68;;;;;;;-7.78;89.82;100751.06;10502718;28;20393;-69
2024/01/11 12:32:17;;;;;;;2.20;0.88;;;;;;;-7.87;91.11;100758.16;10493915;28;20043;-68
2024/01/11 12:37:20;;;;;;;1.55;0.55;;;;;;;-7.81;91.67;100775.31;10497361;28;20041;-67
2024/01/11 12:42:23;;;;;;;1.38;0.60;;;;;;;-8.03;93.11;100772.22;10470516;28;20052;-67
2024/01/11 12:47:25;;;;;;;0.52;0.40;;;;;;;-8.17;94.00;100799.41;10523040;28;20505;-67
2024/01/11 12:52:30;;;;;;;0.55;0.22;;;;;;;-8.28;96.15;100810.34;10513973;28;20040;-69
2024/01/11 12:57:33;;;;;;;1.17;1.08;;;;;;;-8.34;94.76;100814.47;10509185;28;20040;-66
2024/01/11 13:02:36;;;;;;;0.90;0.57;;;;;;;-8.34;96.44;100833.09;10522054;28;20048;-66
2024/01/11 13:07:40;;;;;;;0.50;0.50;;;;;;;-8.31;96.08;100835.44;10537770;28;20117;-66
2024/01/11 13:12:42;;;;;;;0.40;0.40;;;;;;;-8.39;95.20;100848.69;10516403;28;20037;-67
2024/01/11 13:17:45;;;;;;;1.05;0.80;;;;;;;-8.41;94.79;100856.00;10524550;28;20028;-67
2024/01/11 13:22:53;;;;;;;2.90;0.98;;;;;;;-8.26;95.13;100854.44;10519037;28;20040;-65
2024/01/11 13:27:55;;;;;;;1.20;0.50;;;;;;;-8.23;93.96;100867.44;10488086;28;20036;-65
2024/01/11 13:32:58;;;;;;;1.67;0.95;;;;;;;-8.41;94.44;100860.47;10491484;28;20036;-65
2024/01/11 13:38:03;;;;;;;2.75;1.23;;;;;;;-8.27;94.12;100881.19;10507892;28;20420;-63
2024/01/11 13:43:06;;;;;;;1.42;0.70;;;;;;;-8.16;94.20;100885.44;10517948;28;20029;-66
2024/01/11 13:48:11;;;;;;;1.67;1.00;;;;;;;-8.12;94.42;100882.31;10514312;28;20044;-67
2024/01/11 13:53:13;;;;;;;3.08;0.70;;;;;;;-8.22;92.83;100900.19;10520791;28;20050;-66
2024/01/11 13:58:16;;;;;;;1.10;0.85;;;;;;;-8.32;92.31;100897.63;10525172;28;20111;-66
2024/01/11 14:03:20;;;;;;;0.70;0.60;;;;;;;-8.24;94.00;100900.34;10509066;28;20115;-66
2024/01/11 14:08:23;;;;;;;1.80;1.02;;;;;;;-8.21;94.09;100926.66;10502735;28;20385;-66
2024/01/11 14:13:25;;;;;;;1.17;0.52;;;;;;;-8.34;91.70;100922.75;10508101;28;20032;-67
2024/01/11 14:18:28;;;;;;;0.85;0.68;;;;;;;-8.30;89.80;100930.25;10524009;28;20039;-66
2024/01/11 14:23:30;;;;;;;3.22;0.88;;;;;;;-8.25;90.10;100946.59;10529033;28;20512;-68
2024/01/11 14:28:34;;;;;;;0.70;0.60;;;;;;;-8.31;89.80;100954.38;10503304;28;20047;-70
2024/01/11 14:33:36;;;;;;;0.50;0.50;;;;;;;-8.40;91.35;100966.75;10503860;28;20451;-67
2024/01/11 14:38:41;;;;;;;1.30;0.73;;;;;;;-8.39;93.16;100968.44;10517378;28;20040;-67
2024/01/11 14:43:43;;;;;;;0.55;0.43;;;;;;;-8.43;93.26;100985.69;10482278;28;20036;-67
2024/01/11 14:48:45;;;;;;;1.55;0.50;;;;;;;-8.41;93.38;100988.22;10509913;28;20052;-67
2024/01/11 14:53:48;;;;;;;1.00;0.85;;;;;;;-8.40;93.27;100998.69;10478807;28;20040;-67
2024/01/11 14:58:50;;;;;;;0.45;0.30;;;;;;;-8.44;92.66;101005.31;10463105;28;20622;-67
2024/01/11 15:03:53;;;;;;;0.50;0.50;;;;;;;-8.36;90.68;101013.38;10477185;28;20523;-67
2024/01/11 15:08:55;;;;;;;1.50;0.55;;;;;;;-8.34;89.81;101016.72;10463773;28;20045;-65
2024/01/11 15:13:59;;;;;;;1.48;0.82;;;;;;;-8.30;87.49;101033.22;10487928;28;20048;-65
2024/01/11 15:19:01;;;;;;;1.92;1.00;;;;;;;-8.25;87.01;101037.09;10496016;28;20036;-66
2024/01/11 15:24:03;;;;;;;1.67;0.82;;;;;;;-8.29;88.79;101040.22;10476170;28;20056;-67
2024/01/11 15:29:06;;;;;;;0.75;0.70;;;;;;;-8.42;90.58;101056.56;10475469;28;20040;-67
2024/01/11 15:34:08;;;;;;;0.10;0.10;;;;;;;-8.41;91.30;101057.41;10477050;28;20037;-67
2024/01/11 15:39:11;;;;;;;0.82;0.55;;;;;;;-8.42;90.68;101069.03;10515142;28;20040;-66
2024/01/11 15:44:13;;;;;;;0.98;0.85;;;;;;;-8.40;89.70;101080.34;10436857;28;20041;-66
2024/01/11 15:49:15;;;;;;;0.45;0.40;;;;;;;-8.35;88.84;101089.56;10497038;28;20524;-68
2024/01/11 15:54:20;;;;;;;0.20;0.20;;;;;;;-8.30;87.59;101087.28;10526486;28;20051;-66
2024/01/11 15:59:22;;;;;;;0.40;0.40;;;;;;;-8.31;86.60;101101.59;10525601;28;20051;-66
2024/01/11 16:04:28;;;;;;;0.55;0.52;;;;;;;-8.30;85.48;101103.25;10510209;28;20043;-68
2024/01/11 16:09:30;;;;;;;0.88;0.88;;;;;;;-8.28;84.95;101097.78;10528764;28;20043;-66
2024/01/11 16:14:33;;;;;;;2.40;1.15;;;;;;;-8.38;85.24;101110.31;10520814;28;20040;-66
2024/01/11 16:19:36;;;;;;;1.60;0.82;;;;;;;-8.51;86.30;101110.66;10492542;28;20052;-67
2024/01/11 16:24:38;;;;;;;5.07;1.38;;;;;;;-8.64;86.80;101104.84;10509714;28;20845;-66
2024/01/11 16:29:41;;;;;;;5.40;1.70;;;;;;;-8.65;86.70;101130.59;10524127;28;20388;-66
2024/01/11 16:34:43;;;;;;;1.25;0.90;;;;;;;-8.71;87.27;101132.97;10526599;28;20040;-66
2024/01/11 16:39:46;;;;;;;1.73;0.93;;;;;;;-8.79;87.26;101138.19;10527345;28;20512;-65
2024/01/11 16:44:49;;;;;;;2.92;1.35;;;;;;;-8.80;87.81;101144.50;10528282;28;20039;-66
2024/01/11 16:49:51;;;;;;;2.83;1.20;;;;;;;-8.85;88.32;101147.56;10525628;28;20055;-68
2024/01/11 16:54:53;;;;;;;3.40;0.95;;;;;;;-8.85;87.92;101151.09;10526834;28;20041;-65
2024/01/11 16:59:55;;;;;;;4.60;1.35;;;;;;;-8.91;87.94;101161.44;10494293;28;20047;-67
2024/01/11 17:04:58;;;;;;;2.03;1.20;;;;;;;-9.01;88.15;101171.28;10523766;28;20044;-68
2024/01/11 17:10:02;;;;;;;2.92;1.33;;;;;;;-9.13;87.95;101170.56;10517962;28;20522;-68
2024/01/11 17:15:04;;;;;;;5.28;2.00;;;;;;;-9.38;88.53;101168.44;10512013;28;20095;-69
2024/01/11 17:20:07;;;;;;;5.15;1.90;;;;;;;-9.60;89.97;101175.72;10522541;28;20040;-69
2024/01/11 17:25:11;;;;;;;4.57;2.10;;;;;;;-9.79;90.34;101171.22;10522236;28;20040;-68
2024/01/11 17:30:15;;;;;;;3.65;1.52;;;;;;;-9.82;90.75;101186.59;10524354;28;20136;-72
2024/01/11 17:35:17;;;;;;;3.63;1.50;;;;;;;-10.00;91.21;101185.56;10517476;28;20036;-68
2024/01/11 17:40:19;;;;;;;5.88;1.52;;;;;;;-10.09;91.31;101182.72;10518759;28;20424;-69
2024/01/11 17:45:21;;;;;;;5.18;1.30;;;;;;;-10.12;91.19;101188.28;10530849;28;20036;-69
2024/01/11 17:50:24;;;;;;;1.90;1.50;;;;;;;-10.13;91.58;101194.56;10521988;28;20648;-68
2024/01/11 17:55:27;;;;;;;5.95;2.15;;;;;;;-10.12;91.09;101204.22;10524275;28;20036;-66
2024/01/11 18:00:31;;;;;;;3.00;1.52;;;;;;;-10.14;90.84;101205.34;10494696;28;20052;-63
2024/01/11 18:05:34;;;;;;;1.55;1.23;;;;;;;-10.21;90.75;101214.84;10534704;28;20106;-70
2024/01/11 18:10:39;;;;;;;2.53;1.60;;;;;;;-10.25;90.68;101218.72;10518119;28;20870;-69
2024/01/11 18:15:41;;;;;;;2.40;1.30;;;;;;;-10.38;89.91;101214.47;10518419;28;20512;-72
2024/01/11 18:20:50;;;;;;;5.38;2.72;;;;;;;-10.45;89.59;101220.44;10529792;28;20424;-68
2024/01/11 18:25:53;;;;;;;;;;;;;;;-10.55;89.75;101215.09;10523833;28;20170;-67
2024/01/11 18:30:55;;;;;;;3.90;2.05;;;;;;;-10.56;89.16;101229.31;10502253;28;19924;-65
2024/01/11 18:35:58;;;;;;;6.65;2.55;;;;;;;-10.57;88.78;101232.09;10515413;28;20036;-65
2024/01/11 18:41:00;;;;;;;5.63;2.70;;;;;;;-10.57;88.87;101227.63;10508707;28;20032;-67
2024/01/11 18:46:04;;;;;;;6.78;2.60;;;;;;;-10.65;88.10;101236.22;10511885;28;20036;-67
2024/01/11 18:51:07;;;;;;;5.30;3.13;;;;;;;-10.72;88.01;101235.06;10510542;28;20044;-67
2024/01/11 18:56:14;;;;;;;8.48;3.97;;;;;;;-10.78;87.44;101227.63;10517129;28;20043;-67
2024/01/11 19:01:17;;;;;;;5.63;2.60;;;;;;;-10.81;87.48;101229.69;10522322;28;20415;-67
2024/01/11 19:06:20;;;;;;;6.00;2.50;;;;;;;-10.86;87.23;101238.03;10523449;28;20052;-66
2024/01/11 19:11:23;;;;;;;7.43;2.95;;;;;;;-10.96;87.37;101240.59;10537413;28;20036;-67
2024/01/11 19:16:27;;;;;;;6.60;3.03;;;;;;;-11.02;87.73;101229.69;10525344;28;20047;-68
2024/01/11 19:21:29;;;;;;;5.78;2.40;;;;;;;-11.13;87.61;101235.03;10522508;28;20508;-68
2024/01/11 19:26:32;;;;;;;5.32;2.75;;;;;;;-11.23;87.32;101242.06;10524402;28;20033;-69
2024/01/11 19:31:34;;;;;;;4.97;2.25;;;;;;;-11.29;87.12;101241.56;10533493;28;20607;-67
2024/01/11 19:36:41;;;;;;;6.07;2.50;;;;;;;-11.40;87.72;101254.88;10538024;28;20047;-67
2024/01/11 19:41:43;;;;;;;4.07;2.20;;;;;;;-11.50;87.27;101251.28;10536321;28;20032;-66
2024/01/11 19:46:46;;;;;;;4.00;1.75;;;;;;;-11.62;87.08;101253.13;10520737;28;20087;-67
2024/01/11 19:51:48;;;;;;;3.33;1.70;;;;;;;-11.67;86.72;101247.34;10527740;28;20033;-66
2024/01/11 19:56:51;;;;;;;4.75;1.77;;;;;;;-11.78;86.51;101247.38;10529098;28;20040;-66
2024/01/11 20:01:54;;;;;;;5.50;1.90;;;;;;;-11.83;87.44;101252.19;10522274;28;20036;-66
2024/01/11 20:06:57;;;;;;;2.33;1.70;;;;;;;-11.91;86.59;101257.28;10503479;28;20564;-66
2024/01/11 20:11:59;;;;;;;3.65;2.00;;;;;;;-12.00;87.14;101255.34;10531391;28;20036;-66
2024/01/11 20:17:11;;;;;;;4.88;2.13;;;;;;;-12.13;87.13;101241.41;10540568;28;20094;-66
2024/01/11 20:22:13;;;;;;;3.33;1.90;;;;;;;-12.28;87.71;101236.34;10526692;28;20036;-66
2024/01/11 20:27:16;;;;;;;4.60;1.83;;;;;;;-12.29;87.27;101232.03;10528877;28;20044;-67
2024/01/11 20:32:18;;;;;;;2.15;1.70;;;;;;;-12.26;87.44;101245.00;10524263;28;20047;-66
2024/01/11 20:37:20;;;;;;;4.13;1.77;;;;;;;-12.27;87.33;101231.91;10513346;28;20040;-65
2024/01/11 20:42:23;;;;;;;2.63;2.00;;;;;;;-12.35;87.26;101235.13;10536725;28;20028;-65
2024/01/11 20:47:26;;;;;;;4.80;1.90;;;;;;;-12.43;88.05;101232.25;10518893;28;20048;-67
2024/01/11 20:52:28;;;;;;;2.58;1.45;;;;;;;-12.45;88.16;101228.06;10524939;28;20424;-68
2024/01/11 20:57:32;;;;;;;4.80;1.88;;;;;;;-12.54;88.03;101219.84;10535065;28;20447;-67
2024/01/11 21:02:34;;;;;;;5.07;2.17;;;;;;;-12.56;87.43;101231.50;10524889;28;20527;-68
2024/01/11 21:07:37;;;;;;;3.35;2.00;;;;;;;-12.60;87.73;101222.97;10529577;28;20547;-66
2024/01/11 21:12:39;;;;;;;4.35;1.73;;;;;;;-12.60;88.12;101222.97;10513834;28;20037;-66
2024/01/11 21:17:42;;;;;;;3.65;1.98;;;;;;;-12.57;88.43;101219.25;10540054;28;20052;-64
2024/01/11 21:22:45;;;;;;;4.38;1.98;;;;;;;-12.62;88.59;101210.84;10520764;28;20036;-66
2024/01/11 21:27:47;;;;;;;3.17;2.00;;;;;;;-12.72;88.60;101205.41;10519292;28;20098;-67
2024/01/11 21:32:50;;;;;;;7.40;2.60;;;;;;;-12.88;88.42;101196.97;10491951;28;20040;-66
2024/01/11 21:37:53;;;;;;;4.95;2.50;;;;;;;-13.07;88.88;101208.09;10523138;28;20499;-67
2024/01/11 21:42:55;;;;;;;3.42;2.08;;;;;;;-13.22;88.50;101207.47;10542363;28;20063;-67
2024/01/11 21:47:58;;;;;;;3.47;2.25;;;;;;;-13.22;89.48;101196.91;10519781;28;20052;-67
2024/01/11 21:53:01;;;;;;;4.05;2.05;;;;;;;-13.33;89.39;101210.09;10521513;28;20416;-67
2024/01/11 21:58:04;;;;;;;6.07;2.10;;;;;;;-13.37;89.12;101202.47;10496822;28;20047;-67
2024/01/11 22:03:06;;;;;;;5.40;2.80;;;;;;;-13.43;89.72;101209.91;10507467;28;20056;-67
2024/01/11 22:08:09;;;;;;;6.38;2.30;;;;;;;-13.51;89.63;101200.88;10534852;28;20036;-66
2024/01/11 22:13:12;;;;;;;7.35;2.33;;;;;;;-13.56;89.36;101208.28;10504811;28;20037;-67
2024/01/11 22:18:14;;;;;;;6.18;1.88;;;;;;;-13.66;89.00;101212.56;10530675;28;20412;-66
2024/01/11 22:23:17;;;;;;;5.70;2.38;;;;;;;-13.58;89.41;101199.63;10524793;28;20555;-67
2024/01/11 22:28:19;;;;;;;6.95;2.00;;;;;;;-13.71;90.04;101208.47;10530036;28;20057;-67
2024/01/11 22:33:21;;;;;;;4.85;1.80;;;;;;;-13.74;90.07;101202.53;10530557;28;20033;-66
2024/01/11 22:38:24;;;;;;;6.43;2.10;;;;;;;-13.82;90.18;101189.91;10506481;28;20083;-67
2024/01/11 22:43:27;;;;;;;5.15;1.80;;;;;;;-13.76;90.40;101175.44;10524900;28;20498;-67
2024/01/11 22:48:29;;;;;;;4.13;1.70;;;;;;;-13.76;90.36;101189.47;10523832;28;20052;-67
2024/01/11 22:53:31;;;;;;;4.00;1.65;;;;;;;-13.88;89.72;101182.47;10540466;28;20036;-67
2024/01/11 22:58:34;;;;;;;4.82;2.10;;;;;;;-13.87;89.83;101173.59;10535520;28;20040;-67
2024/01/11 23:03:36;;;;;;;3.05;1.60;;;;;;;-13.94;90.06;101155.66;10520561;28;20041;-67
2024/01/11 23:08:39;;;;;;;2.25;1.25;;;;;;;-13.91;90.73;101152.81;10524309;28;20500;-67
2024/01/11 23:13:42;;;;;;;3.85;1.42;;;;;;;-13.92;89.89;101159.03;10522266;28;20628;-67